sensor_id;sensor_type;location;lat;lon;timestamp;P1;durP1;ratioP1;P2;durP2;ratioP2
15177;SDS011;7689;53.612;-2.416;2022-08-19T00:01:16;10.02;;;3.50;;
15177;SDS011;7689;53.612;-2.416;2022-08-19T00:03:41;11.20;;;4.00;;
15177;SDS011;7689;53.612;-2.416;2022-08-19T00:06:07;6.43;;;2.75;;
15177;SDS011;7689;53.612;-2.416;2022-08-19T00:08:34;9.18;;;2.67;;
15177;SDS011;7689;53.612;-2.416;2022-08-19T00:10:59;13.63;;;3.15;;
15177;SDS011;7689;53.612;-2.416;2022-08-19T00:13:25;8.25;;;2.70;;
15177;SDS011;7689;53.612;-2.416;2022-08-19T00:15:51;14.57;;;3.70;;
15177;SDS011;7689;53.612;-2.416;2022-08-19T00:18:17;14.88;;;3.17;;
15177;SDS011;7689;53.612;-2.416;2022-08-19T00:20:42;7.28;;;3.05;;
15177;SDS011;7689;53.612;-2.416;2022-08-19T00:23:09;6.55;;;2.72;;
15177;SDS011;7689;53.612;-2.416;2022-08-19T00:25:35;9.93;;;2.55;;
15177;SDS011;7689;53.612;-2.416;2022-08-19T00:28:01;13.18;;;2.90;;
15177;SDS011;7689;53.612;-2.416;2022-08-19T00:30:27;14.15;;;3.33;;
15177;SDS011;7689;53.612;-2.416;2022-08-19T00:32:53;7.28;;;2.70;;
15177;SDS011;7689;53.612;-2.416;2022-08-19T00:35:22;11.27;;;3.30;;
15177;SDS011;7689;53.612;-2.416;2022-08-19T00:37:48;8.68;;;3.60;;
15177;SDS011;7689;53.612;-2.416;2022-08-19T00:40:15;15.88;;;3.40;;
15177;SDS011;7689;53.612;-2.416;2022-08-19T00:42:41;12.88;;;3.15;;
15177;SDS011;7689;53.612;-2.416;2022-08-19T00:45:13;9.00;;;2.90;;
15177;SDS011;7689;53.612;-2.416;2022-08-19T00:47:42;8.85;;;2.60;;
15177;SDS011;7689;53.612;-2.416;2022-08-19T00:50:08;11.18;;;3.03;;
15177;SDS011;7689;53.612;-2.416;2022-08-19T00:52:39;13.40;;;3.30;;
15177;SDS011;7689;53.612;-2.416;2022-08-19T00:55:10;8.25;;;3.30;;
15177;SDS011;7689;53.612;-2.416;2022-08-19T00:57:41;10.18;;;2.72;;
15177;SDS011;7689;53.612;-2.416;2022-08-19T01:00:14;10.88;;;3.22;;
15177;SDS011;7689;53.612;-2.416;2022-08-19T01:02:42;9.55;;;3.00;;
15177;SDS011;7689;53.612;-2.416;2022-08-19T01:05:14;10.02;;;2.90;;
15177;SDS011;7689;53.612;-2.416;2022-08-19T01:07:43;12.35;;;2.78;;
15177;SDS011;7689;53.612;-2.416;2022-08-19T01:10:13;10.35;;;2.67;;
15177;SDS011;7689;53.612;-2.416;2022-08-19T01:12:43;9.73;;;2.63;;
15177;SDS011;7689;53.612;-2.416;2022-08-19T01:15:10;7.95;;;3.10;;
15177;SDS011;7689;53.612;-2.416;2022-08-19T01:17:39;10.05;;;2.80;;
15177;SDS011;7689;53.612;-2.416;2022-08-19T01:20:07;16.98;;;4.10;;
15177;SDS011;7689;53.612;-2.416;2022-08-19T01:22:48;9.70;;;3.10;;
15177;SDS011;7689;53.612;-2.416;2022-08-19T01:25:17;8.35;;;2.70;;
15177;SDS011;7689;53.612;-2.416;2022-08-19T01:27:47;8.80;;;2.92;;
15177;SDS011;7689;53.612;-2.416;2022-08-19T01:30:19;9.02;;;2.85;;
15177;SDS011;7689;53.612;-2.416;2022-08-19T01:32:48;12.85;;;3.03;;
15177;SDS011;7689;53.612;-2.416;2022-08-19T01:35:15;8.50;;;3.20;;
15177;SDS011;7689;53.612;-2.416;2022-08-19T01:37:47;7.88;;;2.88;;
15177;SDS011;7689;53.612;-2.416;2022-08-19T01:40:18;8.73;;;2.78;;
15177;SDS011;7689;53.612;-2.416;2022-08-19T01:42:49;12.90;;;3.25;;
15177;SDS011;7689;53.612;-2.416;2022-08-19T01:45:16;10.43;;;3.15;;
15177;SDS011;7689;53.612;-2.416;2022-08-19T01:47:44;10.98;;;3.13;;
15177;SDS011;7689;53.612;-2.416;2022-08-19T01:50:10;9.40;;;2.50;;
15177;SDS011;7689;53.612;-2.416;2022-08-19T01:52:37;15.63;;;4.38;;
15177;SDS011;7689;53.612;-2.416;2022-08-19T01:55:04;8.55;;;2.55;;
15177;SDS011;7689;53.612;-2.416;2022-08-19T01:57:31;8.15;;;2.92;;
15177;SDS011;7689;53.612;-2.416;2022-08-19T01:59:57;9.32;;;2.33;;
15177;SDS011;7689;53.612;-2.416;2022-08-19T02:02:24;10.50;;;2.97;;
15177;SDS011;7689;53.612;-2.416;2022-08-19T02:04:50;18.00;;;3.58;;
15177;SDS011;7689;53.612;-2.416;2022-08-19T02:07:18;14.13;;;3.35;;
15177;SDS011;7689;53.612;-2.416;2022-08-19T02:09:46;9.15;;;2.97;;
15177;SDS011;7689;53.612;-2.416;2022-08-19T02:12:13;11.15;;;2.65;;
15177;SDS011;7689;53.612;-2.416;2022-08-19T02:14:39;13.55;;;3.58;;
15177;SDS011;7689;53.612;-2.416;2022-08-19T02:17:05;14.57;;;3.58;;
15177;SDS011;7689;53.612;-2.416;2022-08-19T02:19:31;12.25;;;3.80;;
15177;SDS011;7689;53.612;-2.416;2022-08-19T02:21:58;13.30;;;3.30;;
15177;SDS011;7689;53.612;-2.416;2022-08-19T02:24:24;11.68;;;3.53;;
15177;SDS011;7689;53.612;-2.416;2022-08-19T02:26:50;12.07;;;3.05;;
15177;SDS011;7689;53.612;-2.416;2022-08-19T02:29:16;12.60;;;3.63;;
15177;SDS011;7689;53.612;-2.416;2022-08-19T02:31:42;13.52;;;3.03;;
15177;SDS011;7689;53.612;-2.416;2022-08-19T02:34:07;9.07;;;2.90;;
15177;SDS011;7689;53.612;-2.416;2022-08-19T02:36:33;11.65;;;3.20;;
15177;SDS011;7689;53.612;-2.416;2022-08-19T02:38:59;10.30;;;3.05;;
15177;SDS011;7689;53.612;-2.416;2022-08-19T02:41:26;14.07;;;3.10;;
15177;SDS011;7689;53.612;-2.416;2022-08-19T02:43:55;12.77;;;3.28;;
15177;SDS011;7689;53.612;-2.416;2022-08-19T02:46:27;11.82;;;3.38;;
15177;SDS011;7689;53.612;-2.416;2022-08-19T02:48:56;15.15;;;3.80;;
15177;SDS011;7689;53.612;-2.416;2022-08-19T02:51:37;11.70;;;3.30;;
15177;SDS011;7689;53.612;-2.416;2022-08-19T02:54:04;10.80;;;3.33;;
15177;SDS011;7689;53.612;-2.416;2022-08-19T02:56:31;13.38;;;3.95;;
15177;SDS011;7689;53.612;-2.416;2022-08-19T02:59:00;10.55;;;3.88;;
15177;SDS011;7689;53.612;-2.416;2022-08-19T03:01:28;8.93;;;2.60;;
15177;SDS011;7689;53.612;-2.416;2022-08-19T03:03:56;9.40;;;3.05;;
15177;SDS011;7689;53.612;-2.416;2022-08-19T03:06:24;10.93;;;3.58;;
15177;SDS011;7689;53.612;-2.416;2022-08-19T03:08:51;11.75;;;3.53;;
15177;SDS011;7689;53.612;-2.416;2022-08-19T03:13:45;11.93;;;3.10;;
15177;SDS011;7689;53.612;-2.416;2022-08-19T03:16:14;11.65;;;2.97;;
15177;SDS011;7689;53.612;-2.416;2022-08-19T03:18:40;18.13;;;3.78;;
15177;SDS011;7689;53.612;-2.416;2022-08-19T03:21:05;10.20;;;3.00;;
15177;SDS011;7689;53.612;-2.416;2022-08-19T03:23:31;11.98;;;4.18;;
15177;SDS011;7689;53.612;-2.416;2022-08-19T03:25:57;10.00;;;3.78;;
15177;SDS011;7689;53.612;-2.416;2022-08-19T03:28:23;9.65;;;3.00;;
15177;SDS011;7689;53.612;-2.416;2022-08-19T03:31:23;13.50;;;3.25;;
15177;SDS011;7689;53.612;-2.416;2022-08-19T03:33:42;13.55;;;3.42;;
15177;SDS011;7689;53.612;-2.416;2022-08-19T03:36:13;7.30;;;2.70;;
15177;SDS011;7689;53.612;-2.416;2022-08-19T03:38:42;11.85;;;3.30;;
15177;SDS011;7689;53.612;-2.416;2022-08-19T03:41:11;9.25;;;3.42;;
15177;SDS011;7689;53.612;-2.416;2022-08-19T03:43:40;19.65;;;3.58;;
15177;SDS011;7689;53.612;-2.416;2022-08-19T03:46:09;13.50;;;2.83;;
15177;SDS011;7689;53.612;-2.416;2022-08-19T03:48:37;12.43;;;3.35;;
15177;SDS011;7689;53.612;-2.416;2022-08-19T03:51:04;10.45;;;3.08;;
15177;SDS011;7689;53.612;-2.416;2022-08-19T03:53:31;9.55;;;3.05;;
15177;SDS011;7689;53.612;-2.416;2022-08-19T03:55:58;12.70;;;3.40;;
15177;SDS011;7689;53.612;-2.416;2022-08-19T03:58:25;12.38;;;3.30;;
15177;SDS011;7689;53.612;-2.416;2022-08-19T04:00:53;12.15;;;3.25;;
15177;SDS011;7689;53.612;-2.416;2022-08-19T04:03:23;9.82;;;2.95;;
15177;SDS011;7689;53.612;-2.416;2022-08-19T04:05:49;9.30;;;3.10;;
15177;SDS011;7689;53.612;-2.416;2022-08-19T04:08:15;7.65;;;2.95;;
15177;SDS011;7689;53.612;-2.416;2022-08-19T04:10:45;8.48;;;3.28;;
15177;SDS011;7689;53.612;-2.416;2022-08-19T04:13:12;12.38;;;2.80;;
15177;SDS011;7689;53.612;-2.416;2022-08-19T04:15:39;14.75;;;3.20;;
15177;SDS011;7689;53.612;-2.416;2022-08-19T04:18:07;9.50;;;2.90;;
15177;SDS011;7689;53.612;-2.416;2022-08-19T04:20:44;9.13;;;2.97;;
15177;SDS011;7689;53.612;-2.416;2022-08-19T04:23:11;7.20;;;2.67;;
15177;SDS011;7689;53.612;-2.416;2022-08-19T04:25:39;8.82;;;2.65;;
15177;SDS011;7689;53.612;-2.416;2022-08-19T04:28:06;7.90;;;2.22;;
15177;SDS011;7689;53.612;-2.416;2022-08-19T04:30:41;9.48;;;2.60;;
15177;SDS011;7689;53.612;-2.416;2022-08-19T04:33:10;8.07;;;2.92;;
15177;SDS011;7689;53.612;-2.416;2022-08-19T04:35:40;7.22;;;2.92;;
15177;SDS011;7689;53.612;-2.416;2022-08-19T04:38:07;9.40;;;2.72;;
15177;SDS011;7689;53.612;-2.416;2022-08-19T04:40:39;10.57;;;3.08;;
15177;SDS011;7689;53.612;-2.416;2022-08-19T04:43:27;11.63;;;3.38;;
15177;SDS011;7689;53.612;-2.416;2022-08-19T04:45:53;10.75;;;2.78;;
15177;SDS011;7689;53.612;-2.416;2022-08-19T04:48:19;8.32;;;2.97;;
15177;SDS011;7689;53.612;-2.416;2022-08-19T04:50:51;10.55;;;2.67;;
15177;SDS011;7689;53.612;-2.416;2022-08-19T04:53:22;7.72;;;2.53;;
15177;SDS011;7689;53.612;-2.416;2022-08-19T04:55:53;6.75;;;2.85;;
15177;SDS011;7689;53.612;-2.416;2022-08-19T04:58:20;12.18;;;2.97;;
15177;SDS011;7689;53.612;-2.416;2022-08-19T05:00:45;8.98;;;2.75;;
15177;SDS011;7689;53.612;-2.416;2022-08-19T05:03:11;6.30;;;2.58;;
15177;SDS011;7689;53.612;-2.416;2022-08-19T05:05:38;9.18;;;3.28;;
15177;SDS011;7689;53.612;-2.416;2022-08-19T05:08:05;8.48;;;2.53;;
15177;SDS011;7689;53.612;-2.416;2022-08-19T05:10:32;9.07;;;2.85;;
15177;SDS011;7689;53.612;-2.416;2022-08-19T05:13:00;10.82;;;2.92;;
15177;SDS011;7689;53.612;-2.416;2022-08-19T05:15:26;8.00;;;2.60;;
15177;SDS011;7689;53.612;-2.416;2022-08-19T05:17:52;11.02;;;2.70;;
15177;SDS011;7689;53.612;-2.416;2022-08-19T05:20:37;7.30;;;2.90;;
15177;SDS011;7689;53.612;-2.416;2022-08-19T05:23:22;6.55;;;2.65;;
15177;SDS011;7689;53.612;-2.416;2022-08-19T05:25:48;11.95;;;3.30;;
15177;SDS011;7689;53.612;-2.416;2022-08-19T05:28:15;10.55;;;2.80;;
15177;SDS011;7689;53.612;-2.416;2022-08-19T05:30:41;8.15;;;3.00;;
15177;SDS011;7689;53.612;-2.416;2022-08-19T05:33:08;5.40;;;2.58;;
15177;SDS011;7689;53.612;-2.416;2022-08-19T05:35:35;10.40;;;2.90;;
15177;SDS011;7689;53.612;-2.416;2022-08-19T05:38:02;8.55;;;3.42;;
15177;SDS011;7689;53.612;-2.416;2022-08-19T05:40:28;9.35;;;3.03;;
15177;SDS011;7689;53.612;-2.416;2022-08-19T05:42:54;11.23;;;3.28;;
15177;SDS011;7689;53.612;-2.416;2022-08-19T05:45:20;7.75;;;3.25;;
15177;SDS011;7689;53.612;-2.416;2022-08-19T05:47:47;10.40;;;3.13;;
15177;SDS011;7689;53.612;-2.416;2022-08-19T05:50:13;6.60;;;2.53;;
15177;SDS011;7689;53.612;-2.416;2022-08-19T05:52:38;7.43;;;3.00;;
15177;SDS011;7689;53.612;-2.416;2022-08-19T05:55:04;12.15;;;3.13;;
15177;SDS011;7689;53.612;-2.416;2022-08-19T05:57:31;9.07;;;3.33;;
15177;SDS011;7689;53.612;-2.416;2022-08-19T05:59:57;10.68;;;2.92;;
15177;SDS011;7689;53.612;-2.416;2022-08-19T06:02:28;9.90;;;2.97;;
15177;SDS011;7689;53.612;-2.416;2022-08-19T06:04:55;8.35;;;2.78;;
15177;SDS011;7689;53.612;-2.416;2022-08-19T06:07:21;10.38;;;3.30;;
15177;SDS011;7689;53.612;-2.416;2022-08-19T06:09:47;6.88;;;3.33;;
15177;SDS011;7689;53.612;-2.416;2022-08-19T06:12:12;9.88;;;3.13;;
15177;SDS011;7689;53.612;-2.416;2022-08-19T06:14:38;10.00;;;2.95;;
15177;SDS011;7689;53.612;-2.416;2022-08-19T06:17:06;8.27;;;3.33;;
15177;SDS011;7689;53.612;-2.416;2022-08-19T06:19:32;7.90;;;3.10;;
15177;SDS011;7689;53.612;-2.416;2022-08-19T06:21:58;11.63;;;3.30;;
15177;SDS011;7689;53.612;-2.416;2022-08-19T06:24:25;12.63;;;4.07;;
15177;SDS011;7689;53.612;-2.416;2022-08-19T06:26:53;15.93;;;4.40;;
15177;SDS011;7689;53.612;-2.416;2022-08-19T06:29:21;11.20;;;3.40;;
15177;SDS011;7689;53.612;-2.416;2022-08-19T06:31:49;13.88;;;3.47;;
15177;SDS011;7689;53.612;-2.416;2022-08-19T06:34:18;12.45;;;3.60;;
15177;SDS011;7689;53.612;-2.416;2022-08-19T06:36:46;9.38;;;3.25;;
15177;SDS011;7689;53.612;-2.416;2022-08-19T06:39:14;10.40;;;3.13;;
15177;SDS011;7689;53.612;-2.416;2022-08-19T06:41:46;12.23;;;3.40;;
15177;SDS011;7689;53.612;-2.416;2022-08-19T06:44:14;11.23;;;2.97;;
15177;SDS011;7689;53.612;-2.416;2022-08-19T06:46:40;7.05;;;2.80;;
15177;SDS011;7689;53.612;-2.416;2022-08-19T06:49:06;9.25;;;3.05;;
15177;SDS011;7689;53.612;-2.416;2022-08-19T06:51:36;9.60;;;3.28;;
15177;SDS011;7689;53.612;-2.416;2022-08-19T06:54:01;11.30;;;3.83;;
15177;SDS011;7689;53.612;-2.416;2022-08-19T06:56:29;11.27;;;3.47;;
15177;SDS011;7689;53.612;-2.416;2022-08-19T06:58:59;9.73;;;3.05;;
15177;SDS011;7689;53.612;-2.416;2022-08-19T07:01:30;9.07;;;3.60;;
15177;SDS011;7689;53.612;-2.416;2022-08-19T07:04:03;13.43;;;4.32;;
15177;SDS011;7689;53.612;-2.416;2022-08-19T07:06:30;12.93;;;3.13;;
15177;SDS011;7689;53.612;-2.416;2022-08-19T07:08:56;12.00;;;3.65;;
15177;SDS011;7689;53.612;-2.416;2022-08-19T07:11:23;8.65;;;3.50;;
15177;SDS011;7689;53.612;-2.416;2022-08-19T07:13:49;6.20;;;2.80;;
15177;SDS011;7689;53.612;-2.416;2022-08-19T07:16:16;9.02;;;3.25;;
15177;SDS011;7689;53.612;-2.416;2022-08-19T07:18:47;8.45;;;3.03;;
15177;SDS011;7689;53.612;-2.416;2022-08-19T07:21:15;8.38;;;2.92;;
15177;SDS011;7689;53.612;-2.416;2022-08-19T07:23:43;6.47;;;2.95;;
15177;SDS011;7689;53.612;-2.416;2022-08-19T07:26:12;10.13;;;3.22;;
15177;SDS011;7689;53.612;-2.416;2022-08-19T07:28:39;10.98;;;3.17;;
15177;SDS011;7689;53.612;-2.416;2022-08-19T07:31:12;11.00;;;3.58;;
15177;SDS011;7689;53.612;-2.416;2022-08-19T07:33:40;10.52;;;3.60;;
15177;SDS011;7689;53.612;-2.416;2022-08-19T07:36:08;13.05;;;3.50;;
15177;SDS011;7689;53.612;-2.416;2022-08-19T07:38:36;10.70;;;3.33;;
15177;SDS011;7689;53.612;-2.416;2022-08-19T07:41:04;10.77;;;4.20;;
15177;SDS011;7689;53.612;-2.416;2022-08-19T07:43:30;8.68;;;3.53;;
15177;SDS011;7689;53.612;-2.416;2022-08-19T07:45:56;9.50;;;3.58;;
15177;SDS011;7689;53.612;-2.416;2022-08-19T07:48:23;8.70;;;2.75;;
15177;SDS011;7689;53.612;-2.416;2022-08-19T07:50:57;11.48;;;3.25;;
15177;SDS011;7689;53.612;-2.416;2022-08-19T07:53:27;7.88;;;3.58;;
15177;SDS011;7689;53.612;-2.416;2022-08-19T07:55:54;8.50;;;2.95;;
15177;SDS011;7689;53.612;-2.416;2022-08-19T07:58:20;8.10;;;2.78;;
15177;SDS011;7689;53.612;-2.416;2022-08-19T08:00:48;12.82;;;3.28;;
15177;SDS011;7689;53.612;-2.416;2022-08-19T08:03:16;13.55;;;3.75;;
15177;SDS011;7689;53.612;-2.416;2022-08-19T08:05:43;10.35;;;3.25;;
15177;SDS011;7689;53.612;-2.416;2022-08-19T08:08:28;6.45;;;2.90;;
15177;SDS011;7689;53.612;-2.416;2022-08-19T08:10:56;10.13;;;3.50;;
15177;SDS011;7689;53.612;-2.416;2022-08-19T08:13:23;10.35;;;2.92;;
15177;SDS011;7689;53.612;-2.416;2022-08-19T08:15:49;11.35;;;2.90;;
15177;SDS011;7689;53.612;-2.416;2022-08-19T08:18:15;10.10;;;3.03;;
15177;SDS011;7689;53.612;-2.416;2022-08-19T08:20:41;11.90;;;3.30;;
15177;SDS011;7689;53.612;-2.416;2022-08-19T08:23:06;10.38;;;3.63;;
15177;SDS011;7689;53.612;-2.416;2022-08-19T08:25:47;12.88;;;3.42;;
15177;SDS011;7689;53.612;-2.416;2022-08-19T08:28:14;12.60;;;3.47;;
15177;SDS011;7689;53.612;-2.416;2022-08-19T08:30:40;10.38;;;3.20;;
15177;SDS011;7689;53.612;-2.416;2022-08-19T08:33:08;8.70;;;3.25;;
15177;SDS011;7689;53.612;-2.416;2022-08-19T08:35:34;8.93;;;2.80;;
15177;SDS011;7689;53.612;-2.416;2022-08-19T08:38:00;13.70;;;3.20;;
15177;SDS011;7689;53.612;-2.416;2022-08-19T08:40:34;10.95;;;2.90;;
15177;SDS011;7689;53.612;-2.416;2022-08-19T08:43:11;5.80;;;2.42;;
15177;SDS011;7689;53.612;-2.416;2022-08-19T08:45:43;12.18;;;3.65;;
15177;SDS011;7689;53.612;-2.416;2022-08-19T08:51:25;12.18;;;3.00;;
15177;SDS011;7689;53.612;-2.416;2022-08-19T08:53:58;10.25;;;3.13;;
15177;SDS011;7689;53.612;-2.416;2022-08-19T08:56:24;5.65;;;3.03;;
15177;SDS011;7689;53.612;-2.416;2022-08-19T08:59:02;9.45;;;3.30;;
15177;SDS011;7689;53.612;-2.416;2022-08-19T09:01:32;9.93;;;3.17;;
15177;SDS011;7689;53.612;-2.416;2022-08-19T09:03:59;9.75;;;3.20;;
15177;SDS011;7689;53.612;-2.416;2022-08-19T09:09:20;11.05;;;2.88;;
15177;SDS011;7689;53.612;-2.416;2022-08-19T09:14:48;10.30;;;2.70;;
15177;SDS011;7689;53.612;-2.416;2022-08-19T09:17:21;15.18;;;3.08;;
15177;SDS011;7689;53.612;-2.416;2022-08-19T09:19:57;8.23;;;2.95;;
15177;SDS011;7689;53.612;-2.416;2022-08-19T09:22:31;12.95;;;2.83;;
15177;SDS011;7689;53.612;-2.416;2022-08-19T09:24:57;12.60;;;3.20;;
15177;SDS011;7689;53.612;-2.416;2022-08-19T09:27:23;7.45;;;2.60;;
15177;SDS011;7689;53.612;-2.416;2022-08-19T09:29:50;10.02;;;3.20;;
15177;SDS011;7689;53.612;-2.416;2022-08-19T09:32:16;8.90;;;2.40;;
15177;SDS011;7689;53.612;-2.416;2022-08-19T09:34:43;8.70;;;2.60;;
15177;SDS011;7689;53.612;-2.416;2022-08-19T09:37:09;8.55;;;2.28;;
15177;SDS011;7689;53.612;-2.416;2022-08-19T09:39:35;9.30;;;2.40;;
15177;SDS011;7689;53.612;-2.416;2022-08-19T09:42:00;8.38;;;2.55;;
15177;SDS011;7689;53.612;-2.416;2022-08-19T09:44:28;9.45;;;2.55;;
15177;SDS011;7689;53.612;-2.416;2022-08-19T09:46:54;5.95;;;2.42;;
15177;SDS011;7689;53.612;-2.416;2022-08-19T09:49:21;5.30;;;2.25;;
15177;SDS011;7689;53.612;-2.416;2022-08-19T09:51:50;4.82;;;2.20;;
15177;SDS011;7689;53.612;-2.416;2022-08-19T09:54:17;6.78;;;2.33;;
15177;SDS011;7689;53.612;-2.416;2022-08-19T09:56:43;9.40;;;2.60;;
15177;SDS011;7689;53.612;-2.416;2022-08-19T09:59:09;12.55;;;2.80;;
15177;SDS011;7689;53.612;-2.416;2022-08-19T10:01:36;6.90;;;2.90;;
15177;SDS011;7689;53.612;-2.416;2022-08-19T10:04:02;10.38;;;2.60;;
15177;SDS011;7689;53.612;-2.416;2022-08-19T10:06:33;9.68;;;2.35;;
15177;SDS011;7689;53.612;-2.416;2022-08-19T10:09:00;5.45;;;2.30;;
15177;SDS011;7689;53.612;-2.416;2022-08-19T10:11:28;6.03;;;2.05;;
15177;SDS011;7689;53.612;-2.416;2022-08-19T10:13:53;5.57;;;2.05;;
15177;SDS011;7689;53.612;-2.416;2022-08-19T10:16:20;4.88;;;1.95;;
15177;SDS011;7689;53.612;-2.416;2022-08-19T10:18:47;13.65;;;3.42;;
15177;SDS011;7689;53.612;-2.416;2022-08-19T10:21:15;6.47;;;2.17;;
15177;SDS011;7689;53.612;-2.416;2022-08-19T10:23:44;6.80;;;2.60;;
15177;SDS011;7689;53.612;-2.416;2022-08-19T10:26:12;4.88;;;1.98;;
15177;SDS011;7689;53.612;-2.416;2022-08-19T10:28:41;6.93;;;2.20;;
15177;SDS011;7689;53.612;-2.416;2022-08-19T10:31:11;6.88;;;2.08;;
15177;SDS011;7689;53.612;-2.416;2022-08-19T10:33:39;8.95;;;2.17;;
15177;SDS011;7689;53.612;-2.416;2022-08-19T10:36:14;6.55;;;2.03;;
15177;SDS011;7689;53.612;-2.416;2022-08-19T10:38:48;6.43;;;2.05;;
15177;SDS011;7689;53.612;-2.416;2022-08-19T10:43:43;5.45;;;1.75;;
15177;SDS011;7689;53.612;-2.416;2022-08-19T10:46:11;5.53;;;1.90;;
15177;SDS011;7689;53.612;-2.416;2022-08-19T10:48:39;1.67;;;1.40;;
15177;SDS011;7689;53.612;-2.416;2022-08-19T10:51:06;6.47;;;1.95;;
15177;SDS011;7689;53.612;-2.416;2022-08-19T10:53:51;6.13;;;2.13;;
15177;SDS011;7689;53.612;-2.416;2022-08-19T10:56:17;3.97;;;1.67;;
15177;SDS011;7689;53.612;-2.416;2022-08-19T10:59:02;3.97;;;1.40;;
15177;SDS011;7689;53.612;-2.416;2022-08-19T11:01:28;8.13;;;1.75;;
15177;SDS011;7689;53.612;-2.416;2022-08-19T11:03:56;4.00;;;1.70;;
15177;SDS011;7689;53.612;-2.416;2022-08-19T11:06:22;6.47;;;2.60;;
15177;SDS011;7689;53.612;-2.416;2022-08-19T11:08:50;4.50;;;1.30;;
15177;SDS011;7689;53.612;-2.416;2022-08-19T11:11:16;3.22;;;1.58;;
15177;SDS011;7689;53.612;-2.416;2022-08-19T11:13:43;3.97;;;1.48;;
15177;SDS011;7689;53.612;-2.416;2022-08-19T11:16:14;2.15;;;1.13;;
15177;SDS011;7689;53.612;-2.416;2022-08-19T11:18:44;2.65;;;1.38;;
15177;SDS011;7689;53.612;-2.416;2022-08-19T11:21:24;1.33;;;1.20;;
15177;SDS011;7689;53.612;-2.416;2022-08-19T11:23:58;5.28;;;1.42;;
15177;SDS011;7689;53.612;-2.416;2022-08-19T11:26:26;1.25;;;1.13;;
15177;SDS011;7689;53.612;-2.416;2022-08-19T11:28:52;3.63;;;1.65;;
15177;SDS011;7689;53.612;-2.416;2022-08-19T11:31:20;3.35;;;1.50;;
15177;SDS011;7689;53.612;-2.416;2022-08-19T11:33:48;3.75;;;1.60;;
15177;SDS011;7689;53.612;-2.416;2022-08-19T11:36:17;2.10;;;1.48;;
15177;SDS011;7689;53.612;-2.416;2022-08-19T11:38:45;6.30;;;1.77;;
15177;SDS011;7689;53.612;-2.416;2022-08-19T11:41:13;3.45;;;1.92;;
15177;SDS011;7689;53.612;-2.416;2022-08-19T11:43:40;5.38;;;1.63;;
15177;SDS011;7689;53.612;-2.416;2022-08-19T11:46:07;3.20;;;1.30;;
15177;SDS011;7689;53.612;-2.416;2022-08-19T11:48:35;4.40;;;1.30;;
15177;SDS011;7689;53.612;-2.416;2022-08-19T11:51:10;3.92;;;1.67;;
15177;SDS011;7689;53.612;-2.416;2022-08-19T11:53:40;8.15;;;1.58;;
15177;SDS011;7689;53.612;-2.416;2022-08-19T11:56:06;3.65;;;1.50;;
15177;SDS011;7689;53.612;-2.416;2022-08-19T11:58:34;3.42;;;1.42;;
15177;SDS011;7689;53.612;-2.416;2022-08-19T12:01:00;3.42;;;1.38;;
15177;SDS011;7689;53.612;-2.416;2022-08-19T12:03:29;3.78;;;1.60;;
15177;SDS011;7689;53.612;-2.416;2022-08-19T12:05:55;3.17;;;1.50;;
15177;SDS011;7689;53.612;-2.416;2022-08-19T12:08:21;3.65;;;1.20;;
15177;SDS011;7689;53.612;-2.416;2022-08-19T12:10:47;1.77;;;1.00;;
15177;SDS011;7689;53.612;-2.416;2022-08-19T12:13:13;2.75;;;1.17;;
15177;SDS011;7689;53.612;-2.416;2022-08-19T12:15:44;3.80;;;1.27;;
15177;SDS011;7689;53.612;-2.416;2022-08-19T12:18:11;3.15;;;1.30;;
15177;SDS011;7689;53.612;-2.416;2022-08-19T12:20:39;1.70;;;1.20;;
15177;SDS011;7689;53.612;-2.416;2022-08-19T12:23:06;4.07;;;1.25;;
15177;SDS011;7689;53.612;-2.416;2022-08-19T12:25:34;5.32;;;1.83;;
15177;SDS011;7689;53.612;-2.416;2022-08-19T12:28:01;1.73;;;1.05;;
15177;SDS011;7689;53.612;-2.416;2022-08-19T12:30:27;3.03;;;1.48;;
15177;SDS011;7689;53.612;-2.416;2022-08-19T12:32:53;3.50;;;1.20;;
15177;SDS011;7689;53.612;-2.416;2022-08-19T12:35:19;3.83;;;1.60;;
15177;SDS011;7689;53.612;-2.416;2022-08-19T12:37:45;1.95;;;1.00;;
15177;SDS011;7689;53.612;-2.416;2022-08-19T12:40:12;1.50;;;1.15;;
15177;SDS011;7689;53.612;-2.416;2022-08-19T12:42:39;3.13;;;1.15;;
15177;SDS011;7689;53.612;-2.416;2022-08-19T12:45:12;2.05;;;1.50;;
15177;SDS011;7689;53.612;-2.416;2022-08-19T12:47:38;3.00;;;1.15;;
15177;SDS011;7689;53.612;-2.416;2022-08-19T12:50:05;2.78;;;1.10;;
15177;SDS011;7689;53.612;-2.416;2022-08-19T12:52:34;1.67;;;1.52;;
15177;SDS011;7689;53.612;-2.416;2022-08-19T12:55:02;1.17;;;1.10;;
15177;SDS011;7689;53.612;-2.416;2022-08-19T12:57:29;2.35;;;1.25;;
15177;SDS011;7689;53.612;-2.416;2022-08-19T12:59:58;2.97;;;0.90;;
15177;SDS011;7689;53.612;-2.416;2022-08-19T13:02:26;2.70;;;1.20;;
15177;SDS011;7689;53.612;-2.416;2022-08-19T13:04:51;1.75;;;0.93;;
15177;SDS011;7689;53.612;-2.416;2022-08-19T13:07:17;1.90;;;1.05;;
15177;SDS011;7689;53.612;-2.416;2022-08-19T13:09:43;2.00;;;1.10;;
15177;SDS011;7689;53.612;-2.416;2022-08-19T13:12:09;3.92;;;1.10;;
15177;SDS011;7689;53.612;-2.416;2022-08-19T13:14:38;3.80;;;1.30;;
15177;SDS011;7689;53.612;-2.416;2022-08-19T13:17:05;2.47;;;1.00;;
15177;SDS011;7689;53.612;-2.416;2022-08-19T13:19:31;4.95;;;1.50;;
15177;SDS011;7689;53.612;-2.416;2022-08-19T13:21:57;1.77;;;1.25;;
15177;SDS011;7689;53.612;-2.416;2022-08-19T13:24:23;2.65;;;0.90;;
15177;SDS011;7689;53.612;-2.416;2022-08-19T13:26:49;2.20;;;1.00;;
15177;SDS011;7689;53.612;-2.416;2022-08-19T13:29:15;1.73;;;0.90;;
15177;SDS011;7689;53.612;-2.416;2022-08-19T13:31:59;1.42;;;1.02;;
15177;SDS011;7689;53.612;-2.416;2022-08-19T13:34:43;2.25;;;1.05;;
15177;SDS011;7689;53.612;-2.416;2022-08-19T13:37:11;0.90;;;0.75;;
15177;SDS011;7689;53.612;-2.416;2022-08-19T13:39:37;0.82;;;0.82;;
15177;SDS011;7689;53.612;-2.416;2022-08-19T13:42:03;0.70;;;0.70;;
15177;SDS011;7689;53.612;-2.416;2022-08-19T13:44:30;0.90;;;0.90;;
15177;SDS011;7689;53.612;-2.416;2022-08-19T13:47:00;1.05;;;0.95;;
15177;SDS011;7689;53.612;-2.416;2022-08-19T13:49:31;1.80;;;1.10;;
15177;SDS011;7689;53.612;-2.416;2022-08-19T13:51:57;1.08;;;0.93;;
15177;SDS011;7689;53.612;-2.416;2022-08-19T13:54:23;3.10;;;1.13;;
15177;SDS011;7689;53.612;-2.416;2022-08-19T13:56:49;1.20;;;1.02;;
15177;SDS011;7689;53.612;-2.416;2022-08-19T13:59:15;2.95;;;1.17;;
15177;SDS011;7689;53.612;-2.416;2022-08-19T14:01:42;1.15;;;0.93;;
15177;SDS011;7689;53.612;-2.416;2022-08-19T14:04:08;1.85;;;1.10;;
15177;SDS011;7689;53.612;-2.416;2022-08-19T14:06:34;1.15;;;1.00;;
15177;SDS011;7689;53.612;-2.416;2022-08-19T14:09:00;2.25;;;1.20;;
15177;SDS011;7689;53.612;-2.416;2022-08-19T14:11:27;2.83;;;1.05;;
15177;SDS011;7689;53.612;-2.416;2022-08-19T14:13:53;3.92;;;1.83;;
15177;SDS011;7689;53.612;-2.416;2022-08-19T14:16:19;2.85;;;1.55;;
15177;SDS011;7689;53.612;-2.416;2022-08-19T14:18:46;2.13;;;1.25;;
15177;SDS011;7689;53.612;-2.416;2022-08-19T14:21:16;1.95;;;1.10;;
15177;SDS011;7689;53.612;-2.416;2022-08-19T14:23:45;2.85;;;1.30;;
15177;SDS011;7689;53.612;-2.416;2022-08-19T14:26:12;2.30;;;1.10;;
15177;SDS011;7689;53.612;-2.416;2022-08-19T14:28:40;1.30;;;1.20;;
15177;SDS011;7689;53.612;-2.416;2022-08-19T14:31:08;1.75;;;1.00;;
15177;SDS011;7689;53.612;-2.416;2022-08-19T14:33:35;2.53;;;1.13;;
15177;SDS011;7689;53.612;-2.416;2022-08-19T14:36:01;2.42;;;1.33;;
15177;SDS011;7689;53.612;-2.416;2022-08-19T14:38:27;3.72;;;1.40;;
15177;SDS011;7689;53.612;-2.416;2022-08-19T14:41:05;2.50;;;1.30;;
15177;SDS011;7689;53.612;-2.416;2022-08-19T14:43:42;3.50;;;1.20;;
15177;SDS011;7689;53.612;-2.416;2022-08-19T14:46:11;2.10;;;1.45;;
15177;SDS011;7689;53.612;-2.416;2022-08-19T14:48:40;2.45;;;1.02;;
15177;SDS011;7689;53.612;-2.416;2022-08-19T14:51:06;3.03;;;1.42;;
15177;SDS011;7689;53.612;-2.416;2022-08-19T14:53:32;2.05;;;1.45;;
15177;SDS011;7689;53.612;-2.416;2022-08-19T14:55:58;2.53;;;1.20;;
15177;SDS011;7689;53.612;-2.416;2022-08-19T14:58:24;1.38;;;0.90;;
15177;SDS011;7689;53.612;-2.416;2022-08-19T15:00:51;2.30;;;0.95;;
15177;SDS011;7689;53.612;-2.416;2022-08-19T15:03:16;4.07;;;1.05;;